Accueil
METAR-TAF:

METAR-TAF

Aéroports :

Caen, France

Aéroport de Caen - Carpiquet

latitude: 49-11N, longitude: 000-27W, altitude: 78 m

Observation

Le bulletin a été fait il y a 32 minutes, à 20:30 UTC
Vent 9 kt de ouest
Température 14°C
Humidité 77%
Pression 1014 hPa
Visibilité 10 km ou plus
pas de nuages en-dessous de 1500 mètres et pas de cumulonimbus.

METAR: LFRK 242030Z AUTO 27009KT CAVOK 14/10 Q1014

Heure: 23:02 (21:02 UTC)

Prévision

Le bulletin a été fait il y a 7 heures et 2 minutes, à 14:00 UTC
Prévision valable du 24 à 15 UTC au 24 à 24 UTC
Vent 8 kt de ouest/sud-ouest
Visibilité 10 km ou plus
Nuages fragmentés à une hauteur de 3000 ft
Probabilité 30% :
Temporairement
du 24 à 18 UTC au 24 à 24 UTC
Nuages fragmentés à une hauteur de 1500 ft

TAF: LFRK 241400Z 2415/2424 24008KT 9999 BKN030 PROB30 TEMPO 2418/2424 BKN015

Observations et prévisions météorologiques de plus de 4000 aéroports (messages METAR et TAF).

Les stations disponibles sont représentées par des disques jaunes et rouges sur la carte.

Passer la souris dessus pour voir le nom de la station.

Cliquer dessus pour voir les observations et prévisions météorologiques.

Pour changer de carte: cliquez sur les boutons verts avec une croix noire pour zoomer, sur le bouton vert avec un tiret pour effectuer un zoom arrière, ou sur les flèches vertes pour les cartes adjacentes.


METAR-TAF: